Time;durP1;ratioP1;P1;durP2;ratioP2;P2;SDS_P1;SDS_P2;PMS_P1;PMS_P2;Temp;Humidity;BMP_temperature;BMP_pressure;BME280_temperature;BME280_humidity;BME280_pressure;Samples;Min_cycle;Max_cycle;Signal;HPM_P1;HPM_P2
2021/05/12 00:00:57;;;;;;;10.90;5.55;;;;;;;10.66;93.15;101082.75;5111822;28;20455;-49
2021/05/12 00:03:25;;;;;;;6.75;4.68;;;;;;;10.68;93.35;101080.50;5112673;28;20044;-54
2021/05/12 00:05:52;;;;;;;12.85;7.97;;;;;;;10.69;93.41;101085.78;5112378;27;20071;-52
2021/05/12 00:08:20;;;;;;;10.52;5.88;;;;;;;10.68;93.36;101086.06;5112600;28;20114;-50
2021/05/12 00:10:47;;;;;;;11.18;6.28;;;;;;;10.69;93.48;101082.16;5111665;28;20590;-52
2021/05/12 00:13:14;;;;;;;10.18;5.57;;;;;;;10.69;93.57;101079.38;5112157;28;20073;-51
2021/05/12 00:15:41;;;;;;;9.07;5.68;;;;;;;10.68;93.68;101081.31;5101276;28;20480;-52
2021/05/12 00:18:12;;;;;;;8.88;5.43;;;;;;;10.68;93.69;101072.94;5112592;28;20047;-48
2021/05/12 00:20:41;;;;;;;8.35;5.03;;;;;;;10.70;93.78;101076.28;5112080;28;20036;-51
2021/05/12 00:23:10;;;;;;;14.32;6.20;;;;;;;10.71;93.68;101077.13;5112438;28;20078;-55
2021/05/12 00:25:38;;;;;;;8.70;4.85;;;;;;;10.70;93.70;101087.44;5109373;28;20122;-56
2021/05/12 00:28:05;;;;;;;9.20;5.20;;;;;;;10.72;93.73;101080.75;5112235;28;20039;-50
2021/05/12 00:30:32;;;;;;;6.95;3.92;;;;;;;10.70;93.86;101087.44;5111972;28;20079;-53
2021/05/12 00:33:00;;;;;;;8.93;5.20;;;;;;;10.69;93.87;101085.78;5112341;28;20051;-52
2021/05/12 00:35:27;;;;;;;7.70;4.35;;;;;;;10.67;93.75;101088.03;5111605;28;20051;-55
2021/05/12 00:37:56;;;;;;;8.60;5.93;;;;;;;10.66;93.81;101085.53;5112456;28;20085;-50
2021/05/12 00:40:23;;;;;;;9.55;5.00;;;;;;;10.65;93.93;101086.66;5111822;28;20043;-55
2021/05/12 00:42:51;;;;;;;9.27;4.80;;;;;;;10.61;93.98;101092.00;5112424;28;20109;-51
2021/05/12 00:45:21;;;;;;;11.75;5.40;;;;;;;10.60;93.96;101095.06;5111979;28;20061;-53
2021/05/12 00:47:49;;;;;;;8.55;5.28;;;;;;;10.58;93.97;101095.41;5111805;28;20390;-51
2021/05/12 00:50:19;;;;;;;12.25;6.18;;;;;;;10.56;93.94;101092.06;5111886;28;20051;-55
2021/05/12 00:52:47;;;;;;;8.43;5.60;;;;;;;10.54;94.03;101094.31;5112402;28;20438;-49
2021/05/12 00:55:15;;;;;;;13.77;6.78;;;;;;;10.50;93.91;101089.59;5111217;28;20063;-53
2021/05/12 00:57:43;;;;;;;8.85;4.25;;;;;;;10.45;93.95;101095.22;5112162;28;20047;-50
2021/05/12 01:00:13;;;;;;;10.00;5.13;;;;;;;10.41;93.85;101094.13;5111577;28;20035;-51
2021/05/12 01:02:40;;;;;;;8.88;5.30;;;;;;;10.37;93.98;101090.28;5111089;28;20059;-54
2021/05/12 01:05:13;;;;;;;8.38;5.10;;;;;;;10.34;93.94;101088.91;5111816;28;20040;-50
2021/05/12 01:07:41;;;;;;;12.55;6.03;;;;;;;10.32;93.91;101091.16;5112243;28;20056;-50
2021/05/12 01:10:09;;;;;;;11.02;5.10;;;;;;;10.30;93.99;101093.41;5111022;28;20439;-52
2021/05/12 01:12:37;;;;;;;10.05;5.50;;;;;;;10.26;93.84;101093.16;5111796;28;20500;-54
2021/05/12 01:15:06;;;;;;;9.88;4.70;;;;;;;10.24;93.79;101097.34;5111313;28;20112;-48
2021/05/12 01:17:33;;;;;;;10.95;5.82;;;;;;;10.21;93.80;101101.53;5111277;28;20120;-53
2021/05/12 01:20:01;;;;;;;13.40;5.75;;;;;;;10.18;93.74;101098.50;5111719;28;20130;-54
2021/05/12 01:22:29;;;;;;;11.50;6.28;;;;;;;10.15;93.74;101101.88;5111168;28;20043;-50
2021/05/12 01:24:56;;;;;;;10.07;4.72;;;;;;;10.11;93.66;101106.34;5111768;28;20416;-50
2021/05/12 01:27:24;;;;;;;12.63;5.63;;;;;;;10.06;93.56;101104.44;5111209;28;20446;-54
2021/05/12 01:29:51;;;;;;;11.02;5.05;;;;;;;10.03;93.67;101099.44;5111196;28;20083;-51
2021/05/12 01:32:20;;;;;;;11.70;5.30;;;;;;;10.02;93.66;101100.53;5111419;28;20453;-52
2021/05/12 01:34:47;;;;;;;12.32;5.60;;;;;;;9.98;93.29;101097.53;5111492;28;20549;-50
2021/05/12 01:37:14;;;;;;;13.35;6.47;;;;;;;9.98;93.49;101097.53;5110896;28;20078;-54
2021/05/12 01:39:44;;;;;;;11.82;6.03;;;;;;;9.97;93.55;101104.22;5111498;28;20044;-50
2021/05/12 01:42:12;;;;;;;13.63;6.53;;;;;;;9.96;93.46;101101.72;5111043;28;20048;-52
2021/05/12 01:44:39;;;;;;;8.63;4.68;;;;;;;9.95;93.43;101105.63;5111190;28;20047;-53
2021/05/12 01:47:06;;;;;;;9.73;5.63;;;;;;;9.94;93.38;101102.00;5111457;28;20047;-51
2021/05/12 01:49:34;;;;;;;7.57;4.75;;;;;;;9.92;93.28;101092.28;5111447;28;20108;-53
2021/05/12 01:52:01;;;;;;;12.75;5.07;;;;;;;9.90;93.37;101095.34;5110682;28;20492;-52
2021/05/12 01:54:28;;;;;;;12.32;4.80;;;;;;;9.87;93.24;101095.09;5111420;28;20048;-53
2021/05/12 01:56:56;;;;;;;9.82;4.30;;;;;;;9.87;93.23;101100.66;5110770;28;20048;-52
2021/05/12 01:59:24;;;;;;;7.05;3.75;;;;;;;9.83;93.16;101105.13;5110834;28;20043;-53
2021/05/12 02:01:51;;;;;;;5.60;3.28;;;;;;;9.80;92.88;101097.34;5111073;28;20047;-53
2021/05/12 02:07:42;;;;;;;9.00;3.42;;;;;;;9.69;92.96;101099.38;5111340;28;20097;-46
2021/05/12 02:10:10;;;;;;;6.88;3.22;;;;;;;9.70;92.85;101105.78;5111103;28;20089;-49
2021/05/12 02:12:38;;;;;;;9.75;2.78;;;;;;;9.67;92.67;101098.84;5110871;28;20055;-50
2021/05/12 02:15:07;;;;;;;7.75;2.70;;;;;;;9.64;92.57;101094.66;5115258;28;20089;-51
2021/05/12 02:17:35;;;;;;;8.70;2.88;;;;;;;9.62;92.55;101093.28;5114740;28;20044;-56
2021/05/12 02:20:03;;;;;;;7.43;2.58;;;;;;;9.58;92.44;101090.25;5114704;28;20120;-56
2021/05/12 02:22:30;;;;;;;8.80;2.70;;;;;;;9.56;92.43;101091.66;5114957;28;20086;-49
2021/05/12 02:24:58;;;;;;;5.50;2.60;;;;;;;9.52;92.41;101090.56;5114943;28;20047;-52
2021/05/12 02:27:25;;;;;;;7.43;2.40;;;;;;;9.50;92.21;101093.63;5114044;28;20167;-52
2021/05/12 02:29:56;;;;;;;8.45;2.45;;;;;;;9.48;92.15;101086.69;5114707;28;20047;-52
2021/05/12 02:32:23;;;;;;;5.95;1.80;;;;;;;9.46;92.00;101086.97;5114661;28;20104;-52
2021/05/12 02:34:51;;;;;;;7.28;2.40;;;;;;;9.47;92.05;101085.84;5114314;28;20083;-48
2021/05/12 02:37:18;;;;;;;5.78;2.65;;;;;;;9.45;91.88;101087.25;5113553;28;20504;-53
2021/05/12 02:39:45;;;;;;;8.13;2.40;;;;;;;9.45;91.60;101092.81;5114037;28;20056;-49
2021/05/12 02:42:13;;;;;;;7.68;2.40;;;;;;;9.44;91.70;101086.41;5114641;28;20458;-53
2021/05/12 02:44:41;;;;;;;8.23;2.22;;;;;;;9.43;91.77;101079.16;5112727;28;20126;-53
2021/05/12 02:47:09;;;;;;;5.75;2.47;;;;;;;9.44;91.76;101091.16;5114448;28;20043;-50
2021/05/12 02:49:37;;;;;;;7.30;2.35;;;;;;;9.42;91.61;101087.81;5114292;28;20044;-49
2021/05/12 02:52:05;;;;;;;8.10;2.38;;;;;;;9.42;91.37;101082.25;5114773;28;20052;-50
2021/05/12 02:54:33;;;;;;;4.43;2.08;;;;;;;9.40;91.44;101078.91;5113494;28;20100;-50
2021/05/12 02:57:01;;;;;;;8.68;2.17;;;;;;;9.40;91.39;101081.69;5114144;28;20039;-48
2021/05/12 02:59:28;;;;;;;6.40;2.50;;;;;;;9.39;91.29;101078.09;5112918;28;20458;-50
2021/05/12 03:01:56;;;;;;;9.10;2.42;;;;;;;9.39;91.34;101074.50;5113687;28;20109;-50
2021/05/12 03:04:24;;;;;;;5.75;1.95;;;;;;;9.38;91.16;101076.44;5114151;28;20461;-53
2021/05/12 03:06:52;;;;;;;6.97;1.70;;;;;;;9.35;91.12;101079.78;5114164;28;20055;-52
2021/05/12 03:09:20;;;;;;;7.88;1.88;;;;;;;9.36;91.25;101078.66;5113406;28;20039;-51
2021/05/12 03:11:47;;;;;;;5.65;1.80;;;;;;;9.36;91.06;101075.88;5113869;28;20562;-49
2021/05/12 03:14:14;;;;;;;5.38;1.80;;;;;;;9.37;90.81;101079.50;5114068;28;20081;-49
2021/05/12 03:16:42;;;;;;;7.18;2.15;;;;;;;9.39;90.85;101074.50;5113277;28;20488;-50
2021/05/12 03:19:09;;;;;;;6.55;1.85;;;;;;;9.40;90.68;101073.34;5113596;28;20094;-50
2021/05/12 03:21:38;;;;;;;7.00;1.67;;;;;;;9.43;90.12;101075.56;5113728;28;20088;-51
2021/05/12 03:24:07;;;;;;;8.48;1.92;;;;;;;9.46;90.06;101075.00;5112758;28;20058;-53
2021/05/12 03:26:34;;;;;;;4.90;1.48;;;;;;;9.48;89.85;101078.31;5113693;28;20067;-50
2021/05/12 03:29:04;;;;;;;8.00;2.10;;;;;;;9.48;89.83;101078.31;5113146;28;20610;-49
2021/05/12 03:31:32;;;;;;;8.57;1.75;;;;;;;9.49;89.53;101086.41;5113205;28;20059;-49
2021/05/12 03:34:00;;;;;;;6.63;1.50;;;;;;;9.51;89.23;101086.94;5113813;28;20044;-49
2021/05/12 03:36:27;;;;;;;7.03;1.90;;;;;;;9.52;88.68;101085.00;5112542;28;20488;-50
2021/05/12 03:38:55;;;;;;;6.00;1.60;;;;;;;9.54;88.59;101091.13;5113293;28;20052;-52
2021/05/12 03:41:23;;;;;;;5.90;1.70;;;;;;;9.55;88.36;101081.63;5113208;28;20044;-46
2021/05/12 03:43:50;;;;;;;8.38;1.77;;;;;;;9.54;87.91;101093.91;5112617;28;20048;-49
2021/05/12 03:46:18;;;;;;;8.70;2.20;;;;;;;9.54;87.19;101099.47;5112826;28;20100;-49
2021/05/12 03:48:45;;;;;;;5.72;1.60;;;;;;;9.56;87.29;101100.84;5112826;28;20056;-52
2021/05/12 03:51:12;;;;;;;7.15;1.80;;;;;;;9.55;87.11;101098.34;5111846;28;20039;-49
2021/05/12 03:53:40;;;;;;;6.43;1.70;;;;;;;9.55;87.23;101098.34;5112618;28;20500;-51
2021/05/12 03:56:08;;;;;;;7.75;1.52;;;;;;;9.55;87.12;101104.75;5112596;28;20169;-51
2021/05/12 03:58:35;;;;;;;6.82;1.60;;;;;;;9.55;87.50;101101.13;5111926;28;20078;-49
2021/05/12 04:01:03;;;;;;;9.77;2.30;;;;;;;9.54;87.43;101108.66;5112294;28;20047;-53
2021/05/12 04:03:30;;;;;;;7.25;1.92;;;;;;;9.52;87.88;101108.13;5112753;28;20509;-50
2021/05/12 04:05:58;;;;;;;10.95;2.08;;;;;;;9.51;88.03;101098.09;5111928;28;20084;-50
2021/05/12 04:08:26;;;;;;;8.30;2.08;;;;;;;9.51;88.14;101105.63;5112558;28;20043;-48
2021/05/12 04:10:53;;;;;;;6.85;1.95;;;;;;;9.49;88.15;101114.25;5112287;28;20708;-54
2021/05/12 04:13:23;;;;;;;9.52;2.05;;;;;;;9.51;88.33;101113.97;5111941;28;20056;-54
2021/05/12 04:15:51;;;;;;;7.38;1.80;;;;;;;9.51;88.48;101109.22;5112385;28;20442;-51
2021/05/12 04:18:19;;;;;;;9.48;2.08;;;;;;;9.53;88.40;101109.78;5111858;28;20089;-47
2021/05/12 04:20:46;;;;;;;10.55;1.83;;;;;;;9.57;88.64;101107.25;5112880;28;20075;-48
2021/05/12 04:23:14;;;;;;;10.27;1.65;;;;;;;9.62;88.55;101110.00;5112255;28;20043;-53
2021/05/12 04:25:41;;;;;;;9.65;1.90;;;;;;;9.64;88.78;101110.53;5112101;28;20130;-53
2021/05/12 04:28:09;;;;;;;8.85;1.85;;;;;;;9.66;89.04;101117.50;5112055;28;20076;-48
2021/05/12 04:30:37;;;;;;;12.50;2.30;;;;;;;9.69;89.37;101116.09;5112443;28;20047;-50
2021/05/12 04:33:05;;;;;;;14.98;2.20;;;;;;;9.72;89.38;101111.91;5111222;28;20059;-51
2021/05/12 04:35:32;;;;;;;8.30;1.75;;;;;;;9.72;89.35;101106.34;5111858;28;20489;-51
2021/05/12 04:37:59;;;;;;;9.48;1.80;;;;;;;9.74;89.30;101109.66;5112205;28;20071;-50
2021/05/12 04:40:27;;;;;;;8.35;1.83;;;;;;;9.72;89.50;101115.53;5111756;28;20039;-49
2021/05/12 04:42:55;;;;;;;11.25;2.20;;;;;;;9.71;89.66;101108.28;5111936;28;20489;-51
2021/05/12 04:45:23;;;;;;;10.27;1.88;;;;;;;9.72;89.57;101114.69;5111949;28;20074;-54
2021/05/12 04:47:57;;;;;;;14.15;2.20;;;;;;;9.73;89.78;101108.00;5111281;28;20063;-52
2021/05/12 04:50:26;;;;;;;10.23;1.63;;;;;;;9.72;89.98;101121.09;5112018;28;20101;-53
2021/05/12 04:52:54;;;;;;;18.25;2.40;;;;;;;9.71;90.21;101119.44;5111633;28;20043;-54
2021/05/12 04:55:22;;;;;;;10.13;2.10;;;;;;;9.71;90.01;101116.66;5111413;28;20066;-50
2021/05/12 04:57:49;;;;;;;15.20;1.90;;;;;;;9.73;90.38;101111.63;5111543;28;20085;-52
2021/05/12 05:00:21;;;;;;;15.65;2.00;;;;;;;9.75;90.57;101114.97;5112147;28;20051;-52
2021/05/12 05:02:49;;;;;;;11.10;1.90;;;;;;;9.78;90.75;101122.75;5109790;28;20040;-49
2021/05/12 05:05:18;;;;;;;16.92;2.13;;;;;;;9.82;90.95;101126.59;5111691;28;20052;-49
2021/05/12 05:07:45;;;;;;;14.02;1.90;;;;;;;9.82;91.00;101115.44;5111209;28;20557;-51
2021/05/12 05:10:14;;;;;;;14.38;1.92;;;;;;;9.88;90.96;101131.03;5111508;28;20101;-49
2021/05/12 05:12:41;;;;;;;18.85;2.63;;;;;;;9.90;91.22;101120.44;5111373;28;20078;-48
2021/05/12 05:15:10;;;;;;;13.80;1.92;;;;;;;9.92;91.16;101120.97;5109703;28;20130;-52
2021/05/12 05:17:39;;;;;;;23.08;2.53;;;;;;;9.93;91.44;101122.66;5111817;28;20047;-50
2021/05/12 05:20:08;;;;;;;14.65;2.28;;;;;;;9.97;91.27;101128.50;5111389;28;20790;-53
2021/05/12 05:22:37;;;;;;;17.67;2.90;;;;;;;9.98;91.39;101128.19;5109664;28;20047;-53
2021/05/12 05:25:06;;;;;;;18.55;2.20;;;;;;;9.98;91.49;101130.97;5110987;28;20059;-53
2021/05/12 05:27:33;;;;;;;19.73;2.40;;;;;;;9.99;91.46;101135.41;5111562;28;20051;-50
2021/05/12 05:30:01;;;;;;;15.13;2.17;;;;;;;10.00;91.56;101128.72;5110595;28;20533;-54
2021/05/12 05:32:46;;;;;;;14.43;2.28;;;;;;;10.01;91.68;101132.34;5091197;28;20520;-52
2021/05/12 05:35:36;;;;;;;19.92;2.67;;;;;;;10.01;91.59;101141.53;5109871;28;20416;-48
2021/05/12 05:38:23;;;;;;;18.30;2.60;;;;;;;10.01;91.65;101135.97;5110500;28;20408;-50
2021/05/12 05:41:09;;;;;;;20.80;2.42;;;;;;;10.03;91.81;101133.72;5108192;28;20063;-49
2021/05/12 05:43:54;;;;;;;20.45;2.85;;;;;;;10.10;91.82;101138.16;5110837;28;20428;-48
2021/05/12 05:46:40;;;;;;;17.60;2.97;;;;;;;10.15;91.71;101138.13;5111757;28;20420;-51
2021/05/12 05:49:26;;;;;;;22.02;3.35;;;;;;;10.21;91.58;101140.59;5115629;28;20054;-55
2021/05/12 05:52:12;;;;;;;18.88;3.00;;;;;;;10.29;91.38;101139.16;5106767;28;20077;-48
2021/05/12 05:55:00;;;;;;;23.88;2.90;;;;;;;10.40;91.21;101139.88;5115114;28;20161;-46
2021/05/12 05:57:47;;;;;;;21.27;2.53;;;;;;;10.47;90.91;101143.19;5114893;28;20066;-46
2021/05/12 06:00:33;;;;;;;17.92;2.75;;;;;;;10.57;90.94;101127.22;5115167;28;20050;-47
2021/05/12 06:03:01;;;;;;;19.42;2.97;;;;;;;10.68;90.47;101128.78;5115421;28;20055;-51
2021/05/12 06:05:48;;;;;;;21.65;3.15;;;;;;;10.81;90.37;101126.41;5114394;28;20042;-52
2021/05/12 06:08:33;;;;;;;17.42;3.33;;;;;;;10.95;90.28;101133.00;5115417;28;20058;-47
2021/05/12 06:11:20;;;;;;;14.05;2.60;;;;;;;11.08;89.94;101134.22;5114411;28;20468;-49
2021/05/12 06:14:06;;;;;;;22.30;2.60;;;;;;;11.19;89.85;101131.03;5115357;28;20132;-48
2021/05/12 06:16:52;;;;;;;17.55;2.75;;;;;;;11.25;89.18;101135.44;5114830;28;20062;-48
2021/05/12 06:19:39;;;;;;;17.20;2.78;;;;;;;11.36;88.85;101131.41;5114595;28;20510;-49
2021/05/12 06:22:25;;;;;;;20.23;2.78;;;;;;;11.45;88.57;101137.16;5115071;28;20046;-50
2021/05/12 06:25:13;;;;;;;20.05;3.05;;;;;;;11.56;87.99;101135.06;5114182;28;20062;-52
2021/05/12 06:27:59;;;;;;;19.60;2.97;;;;;;;11.60;87.48;101133.31;5114163;28;20419;-51
2021/05/12 06:30:49;;;;;;;20.15;2.90;;;;;;;11.62;86.92;101137.47;5114917;28;20054;-49
2021/05/12 06:33:37;;;;;;;13.38;1.98;;;;;;;11.74;87.04;101142.66;5105747;28;20128;-53
2021/05/12 06:36:25;;;;;;;17.98;2.78;;;;;;;11.92;87.10;101146.63;5092939;28;20075;-54
2021/05/12 06:39:23;;;;;;;20.25;2.50;;;;;;;12.00;86.05;101151.53;5114479;28;20480;-50
2021/05/12 06:41:52;;;;;;;18.38;3.17;;;;;;;12.03;85.25;101153.72;5114157;28;20463;-46
2021/05/12 06:44:23;;;;;;;17.48;2.63;;;;;;;12.11;85.26;101158.66;5114526;28;20047;-52
2021/05/12 06:46:51;;;;;;;18.75;2.67;;;;;;;12.11;84.39;101157.81;5113909;28;20043;-51
2021/05/12 06:49:19;;;;;;;16.85;2.92;;;;;;;12.22;84.86;101162.13;5114593;28;20050;-49
2021/05/12 06:51:55;;;;;;;19.17;2.58;;;;;;;12.37;84.44;101162.75;5114259;28;20035;-50
2021/05/12 06:54:22;;;;;;;20.25;3.20;;;;;;;12.40;83.67;101152.88;5113993;28;20044;-49
2021/05/12 06:56:50;;;;;;;16.60;2.72;;;;;;;12.41;83.50;101158.19;5113661;28;20492;-52
2021/05/12 06:59:17;;;;;;;22.40;3.08;;;;;;;12.49;83.10;101164.22;5113517;28;20055;-49
2021/05/12 07:01:45;;;;;;;14.00;2.13;;;;;;;12.53;83.00;101156.91;5113418;28;20066;-51
2021/05/12 07:04:13;;;;;;;16.92;2.63;;;;;;;12.57;82.81;101161.59;5114118;28;20051;-53
2021/05/12 07:06:41;;;;;;;20.70;3.03;;;;;;;12.67;83.04;101158.59;5113724;27;20078;-54
2021/05/12 07:09:08;;;;;;;19.15;3.03;;;;;;;12.77;82.34;101163.22;5113404;28;20052;-51
2021/05/12 07:11:35;;;;;;;16.95;3.03;;;;;;;12.86;82.26;101163.31;5112233;28;20412;-54
2021/05/12 07:14:06;;;;;;;19.30;2.92;;;;;;;12.89;81.63;101160.75;5113508;28;20450;-54
2021/05/12 07:16:34;;;;;;;24.88;4.38;;;;;;;12.87;81.21;101164.97;5113619;28;20052;-50
2021/05/12 07:19:02;;;;;;;17.02;2.60;;;;;;;12.96;81.28;101163.16;5113352;28;20403;-52
2021/05/12 07:21:33;;;;;;;18.58;2.97;;;;;;;12.96;80.61;101160.34;5113174;28;20063;-49
2021/05/12 07:24:00;;;;;;;20.83;3.55;;;;;;;13.04;80.76;101162.41;5113273;28;20113;-50
2021/05/12 07:26:28;;;;;;;22.58;3.20;;;;;;;13.15;80.63;101158.34;5112479;28;20397;-51
2021/05/12 07:28:56;;;;;;;20.42;3.47;;;;;;;13.27;80.25;101160.63;5111380;28;20500;-48
2021/05/12 07:31:24;;;;;;;19.15;3.35;;;;;;;13.34;79.79;101161.88;5113338;28;20083;-46
2021/05/12 07:33:52;;;;;;;14.98;2.92;;;;;;;13.41;79.52;101165.09;5113143;28;20122;-46
2021/05/12 07:36:20;;;;;;;16.55;2.47;;;;;;;13.36;78.61;101168.00;5112688;28;20040;-47
2021/05/12 07:38:48;;;;;;;18.63;2.53;;;;;;;13.43;79.14;101171.22;5113186;28;20031;-48
2021/05/12 07:41:15;;;;;;;19.73;3.10;;;;;;;13.57;78.62;101178.81;5113376;28;20066;-47
2021/05/12 07:43:44;;;;;;;18.38;2.75;;;;;;;13.63;78.23;101174.75;5112363;28;20557;-46
2021/05/12 07:46:11;;;;;;;19.83;2.72;;;;;;;13.66;77.89;101177.75;5113203;28;20108;-47
2021/05/12 07:48:39;;;;;;;22.92;2.88;;;;;;;13.70;77.64;101176.00;5112963;27;20039;-49
2021/05/12 07:51:07;;;;;;;18.20;3.22;;;;;;;13.78;78.06;101177.25;5112265;28;20053;-48
2021/05/12 07:53:35;;;;;;;18.30;3.17;;;;;;;13.82;77.61;101181.06;5112732;28;20044;-49
2021/05/12 07:56:03;;;;;;;15.57;2.70;;;;;;;13.73;76.91;101180.16;5104590;28;20150;-50
2021/05/12 07:58:34;;;;;;;17.67;2.73;;;;;;;13.71;77.12;101182.44;5112055;28;20044;-53
2021/05/12 08:01:06;;;;;;;22.73;3.60;;;;;;;13.76;76.78;101180.38;5112919;28;20054;-47
2021/05/12 08:03:33;;;;;;;;;;;;;;;13.58;75.74;101177.69;5112327;28;20057;-47
2021/05/12 08:06:01;;;;;;;17.13;3.17;;;;;;;13.60;77.46;101180.97;5112837;28;20253;-53
2021/05/12 08:08:28;;;;;;;18.50;3.03;;;;;;;13.80;77.44;101186.16;5112593;28;20048;-47
2021/05/12 08:10:56;;;;;;;20.13;3.50;;;;;;;13.94;76.90;101184.19;5109581;28;20043;-46
2021/05/12 08:13:24;;;;;;;17.23;2.83;;;;;;;13.88;76.14;101185.44;5112535;28;20069;-51
2021/05/12 08:15:51;;;;;;;16.25;3.15;;;;;;;13.81;76.13;101182.22;5111945;28;20055;-46
2021/05/12 08:18:18;;;;;;;17.25;3.45;;;;;;;13.97;76.53;101185.53;5112163;28;20054;-51
2021/05/12 08:20:46;;;;;;;17.83;2.63;;;;;;;14.13;76.22;101190.50;5112363;28;20127;-47
2021/05/12 08:23:13;;;;;;;23.70;3.40;;;;;;;14.19;74.95;101190.38;5112231;28;20158;-52
2021/05/12 08:25:44;;;;;;;15.45;2.92;;;;;;;14.14;74.92;101192.16;5111529;27;20095;-49
2021/05/12 08:28:13;;;;;;;16.25;2.92;;;;;;;14.12;75.11;101183.22;5112227;28;20479;-50
2021/05/12 08:30:45;;;;;;;18.98;2.83;;;;;;;14.26;75.36;101191.59;5111878;28;20035;-44
2021/05/12 08:33:13;;;;;;;16.60;2.92;;;;;;;14.31;74.74;101188.69;5111489;28;20048;-50
2021/05/12 08:35:43;;;;;;;21.20;3.45;;;;;;;14.40;74.03;101191.53;5111980;28;20085;-47
2021/05/12 08:38:16;;;;;;;15.80;2.92;;;;;;;14.25;73.38;101198.34;5112297;28;20047;-48
2021/05/12 08:40:44;;;;;;;19.27;3.28;;;;;;;14.09;74.39;101197.88;5111489;28;20070;-49
2021/05/12 08:43:13;;;;;;;16.98;2.60;;;;;;;14.17;74.76;101196.31;5111959;28;20047;-47
2021/05/12 08:45:43;;;;;;;17.13;2.47;;;;;;;14.05;74.29;101196.00;5111661;28;20093;-45
2021/05/12 08:48:15;;;;;;;14.73;2.80;;;;;;;14.03;74.81;101201.94;5112587;28;20046;-48
2021/05/12 08:50:43;;;;;;;13.10;2.60;;;;;;;14.02;74.47;101205.88;5112145;28;20379;-46
2021/05/12 08:53:11;;;;;;;22.00;3.60;;;;;;;14.04;74.38;101203.59;5111725;28;20043;-46
2021/05/12 08:55:38;;;;;;;15.80;2.80;;;;;;;14.07;73.99;101211.38;5110455;28;20107;-48
2021/05/12 08:58:06;;;;;;;16.48;3.25;;;;;;;14.03;74.11;101204.75;5100815;28;20446;-44
2021/05/12 09:00:34;;;;;;;20.98;4.03;;;;;;;14.05;73.81;101208.06;5111336;28;20043;-51
2021/05/12 09:03:03;;;;;;;18.80;2.72;;;;;;;13.99;73.54;101194.44;5112147;28;20134;-44
2021/05/12 09:05:31;;;;;;;18.52;3.10;;;;;;;14.14;74.20;101194.97;5111763;28;20496;-45
2021/05/12 09:07:59;;;;;;;12.32;2.53;;;;;;;14.41;73.79;101190.44;5107570;28;20044;-48
2021/05/12 09:10:27;;;;;;;18.08;3.28;;;;;;;14.42;73.29;101190.13;5112194;28;20458;-45
2021/05/12 09:12:59;;;;;;;18.83;3.60;;;;;;;14.53;72.94;101190.72;5111701;28;20043;-46
2021/05/12 09:15:28;;;;;;;16.58;3.00;;;;;;;14.48;72.63;101186.06;5110095;28;20466;-49
2021/05/12 09:18:00;;;;;;;19.92;3.13;;;;;;;14.72;72.52;101197.00;5110840;28;20116;-48
2021/05/12 09:20:31;;;;;;;20.15;3.40;;;;;;;14.78;72.00;101192.91;5111602;28;20404;-44
2021/05/12 09:23:08;;;;;;;20.42;3.40;;;;;;;14.96;71.36;101195.84;5110771;28;20527;-47
2021/05/12 09:25:37;;;;;;;16.85;3.08;;;;;;;15.03;71.05;101193.38;5111743;28;20385;-48
2021/05/12 09:28:10;;;;;;;22.60;3.90;;;;;;;15.25;71.08;101198.16;5110845;28;20493;-48
2021/05/12 09:30:38;;;;;;;22.58;3.78;;;;;;;15.06;69.71;101193.56;5111757;28;20116;-48
2021/05/12 09:33:08;;;;;;;19.15;3.30;;;;;;;14.96;69.45;101195.84;5111340;28;20144;-49
2021/05/12 09:35:44;;;;;;;18.77;3.35;;;;;;;14.73;69.49;101198.66;5111002;28;20048;-45
2021/05/12 09:38:21;;;;;;;22.65;4.15;;;;;;;14.64;69.68;101199.72;5111322;28;20043;-49
2021/05/12 09:41:00;;;;;;;18.25;3.30;;;;;;;14.69;70.02;101203.25;5091395;28;20051;-44
2021/05/12 09:43:29;;;;;;;16.38;2.72;;;;;;;14.96;69.89;101202.28;5106530;28;20523;-45
2021/05/12 09:46:15;;;;;;;17.20;2.70;;;;;;;15.10;67.96;101205.00;5111659;28;20052;-48
2021/05/12 09:49:02;;;;;;;18.20;2.70;;;;;;;15.35;68.68;101209.13;5111360;28;20138;-50
2021/05/12 09:51:31;;;;;;;21.02;3.38;;;;;;;15.64;68.55;101203.00;5089519;28;20056;-48
2021/05/12 09:54:07;;;;;;;14.18;2.65;;;;;;;15.74;67.16;101205.53;5108259;28;20484;-46
2021/05/12 09:56:40;;;;;;;18.30;3.40;;;;;;;15.48;66.33;101205.38;5110794;28;20054;-45
2021/05/12 09:59:09;;;;;;;17.75;2.70;;;;;;;15.44;67.50;101207.19;5111041;28;20093;-51
2021/05/12 10:01:40;;;;;;;16.95;3.20;;;;;;;15.46;67.33;101216.13;5111416;28;20048;-46
2021/05/12 10:04:34;;;;;;;18.35;3.15;;;;;;;15.59;67.49;101220.84;5110476;28;20104;-45
2021/05/12 10:07:11;;;;;;;20.40;3.47;;;;;;;15.88;67.72;101216.66;5091105;28;20156;-45
2021/05/12 10:09:40;;;;;;;17.17;2.90;;;;;;;15.90;67.02;101214.34;5109877;28;20051;-47
2021/05/12 10:12:13;;;;;;;14.52;3.08;;;;;;;15.97;66.74;101209.91;5110726;28;20046;-45
2021/05/12 10:14:42;;;;;;;20.88;3.42;;;;;;;16.05;67.17;101211.06;5110831;28;20047;-50
2021/05/12 10:17:12;;;;;;;20.73;3.88;;;;;;;16.21;66.77;101220.72;5109504;28;20105;-49
2021/05/12 10:19:42;;;;;;;17.92;3.03;;;;;;;16.38;66.96;101220.75;5110862;28;20131;-45
2021/05/12 10:22:10;;;;;;;15.93;3.10;;;;;;;16.66;66.72;101218.47;5111069;28;20441;-47
2021/05/12 10:24:40;;;;;;;14.48;2.78;;;;;;;16.88;65.96;101220.28;5110000;28;20048;-47
2021/05/12 10:27:10;;;;;;;18.33;2.97;;;;;;;17.00;64.70;101228.88;5110771;28;20052;-46
2021/05/12 10:29:39;;;;;;;15.75;2.85;;;;;;;16.84;64.96;101222.09;5110966;28;20040;-44
2021/05/12 10:32:22;;;;;;;14.43;2.80;;;;;;;16.78;64.01;101223.47;5110065;28;20457;-48
2021/05/12 10:35:00;;;;;;;17.95;3.65;;;;;;;16.60;62.40;101227.38;5112778;28;20092;-46
2021/05/12 10:37:30;;;;;;;19.20;3.25;;;;;;;16.32;64.48;101226.88;5114434;28;20097;-45
2021/05/12 10:40:00;;;;;;;18.58;3.38;;;;;;;16.42;64.70;101227.38;5113880;27;20044;-46
2021/05/12 10:42:44;;;;;;;17.33;3.30;;;;;;;16.29;62.72;101228.34;5114678;28;20420;-49
2021/05/12 10:45:17;;;;;;;18.33;3.00;;;;;;;16.15;63.41;101225.69;5113705;28;20077;-46
2021/05/12 10:47:44;;;;;;;18.25;3.15;;;;;;;16.13;64.84;101228.00;5114641;28;20404;-47
2021/05/12 10:50:13;;;;;;;20.45;3.50;;;;;;;16.06;64.38;101221.19;5113807;28;20051;-45
2021/05/12 10:53:13;;;;;;;17.13;3.60;;;;;;;15.71;63.54;101217.44;5113937;28;20043;-44
2021/05/12 10:56:11;;;;;;;19.60;3.55;;;;;;;15.73;65.12;101223.56;5113855;28;20051;-45
2021/05/12 10:58:47;;;;;;;18.80;3.03;;;;;;;15.86;65.99;101228.25;5093025;28;20113;-47
2021/05/12 11:01:15;;;;;;;17.02;3.35;;;;;;;16.13;64.81;101228.00;5111025;28;20052;-44
2021/05/12 11:04:18;;;;;;;20.33;3.47;;;;;;;16.47;63.87;101232.03;5114211;28;20095;-45
2021/05/12 11:06:57;;;;;;;17.73;2.63;;;;;;;16.59;63.87;101231.34;5113440;28;20063;-45
2021/05/12 11:09:47;;;;;;;15.68;3.05;;;;;;;16.43;62.97;101229.03;5113106;28;20075;-48
2021/05/12 11:12:32;;;;;;;16.33;2.97;;;;;;;16.26;62.88;101228.19;5113959;28;20449;-46
2021/05/12 11:15:02;;;;;;;17.05;3.70;;;;;;;15.94;63.76;101235.91;5113219;28;20056;-48
2021/05/12 11:17:44;;;;;;;12.93;2.65;;;;;;;15.93;63.58;101234.22;5113577;28;20040;-45
2021/05/12 11:20:15;;;;;;;;;;;;;;;15.82;63.04;101238.47;5113914;28;20035;-46
2021/05/12 11:22:45;;;;;;;16.83;2.90;;;;;;;16.05;64.65;101234.41;5113724;28;19934;-49
2021/05/12 11:25:23;;;;;;;15.43;3.03;;;;;;;16.23;63.97;101228.81;5113587;28;20408;-45
2021/05/12 11:33:58;;;;;;;14.52;3.15;;;;;;;16.15;64.35;101222.88;5113510;28;20048;-42
2021/05/12 11:36:33;;;;;;;18.48;3.25;;;;;;;16.22;64.32;101219.56;5112950;28;20048;-44
2021/05/12 11:39:03;;;;;;;17.77;3.67;;;;;;;16.32;64.76;101215.59;5113634;28;20043;-43
2021/05/12 11:41:30;;;;;;;16.65;2.92;;;;;;;16.51;63.53;101219.78;5112415;28;20062;-44
2021/05/12 11:44:00;;;;;;;14.77;3.15;;;;;;;16.65;63.40;101222.44;5113458;28;20047;-43
2021/05/12 11:46:29;;;;;;;15.10;2.70;;;;;;;16.77;62.79;101219.81;5112702;28;20047;-44
2021/05/12 11:48:58;;;;;;;14.38;2.90;;;;;;;16.57;62.94;101234.53;5112956;28;20043;-46